createdAt,value
2018-02-18T00:02:02.310Z,11.80
2018-02-18T00:04:29.794Z,10.52
2018-02-18T00:06:57.258Z,10.00
2018-02-18T00:09:24.725Z,11.52
2018-02-18T00:11:52.194Z,9.77
2018-02-18T00:14:30.476Z,10.40
2018-02-18T00:16:57.951Z,10.18
2018-02-18T00:19:25.419Z,9.93
2018-02-18T00:21:53.658Z,11.52
2018-02-18T00:24:21.119Z,10.63
2018-02-18T00:26:48.649Z,10.73
2018-02-18T00:29:16.143Z,9.90
2018-02-18T00:31:43.612Z,10.55
2018-02-18T00:34:11.087Z,10.65
2018-02-18T00:36:38.549Z,10.50
2018-02-18T00:39:06.027Z,11.27
2018-02-18T00:41:33.487Z,11.85
2018-02-18T00:44:01.768Z,10.57
2018-02-18T00:46:30.132Z,10.07
2018-02-18T00:48:57.627Z,10.13
2018-02-18T00:51:25.088Z,10.02
2018-02-18T00:53:52.554Z,11.45
2018-02-18T00:56:20.025Z,9.93
2018-02-18T00:58:48.274Z,9.98
2018-02-18T01:01:15.731Z,11.15
2018-02-18T01:03:43.207Z,10.23
2018-02-18T01:06:10.676Z,11.60
2018-02-18T01:08:38.910Z,11.32
2018-02-18T01:11:06.390Z,11.27
2018-02-18T01:13:33.864Z,12.18
2018-02-18T01:16:02.100Z,10.48
2018-02-18T01:18:29.581Z,13.40
2018-02-18T01:20:57.045Z,11.48
2018-02-18T01:23:25.273Z,10.80
2018-02-18T01:25:52.749Z,11.20
2018-02-18T01:28:20.230Z,11.95
2018-02-18T01:30:47.721Z,10.30
2018-02-18T01:33:15.196Z,10.90
2018-02-18T01:35:42.680Z,11.12
2018-02-18T01:38:10.166Z,12.20
2018-02-18T01:40:37.688Z,11.35
2018-02-18T01:43:05.180Z,11.20
2018-02-18T01:45:32.642Z,12.65
2018-02-18T01:48:00.111Z,12.85
2018-02-18T01:50:36.957Z,12.10
2018-02-18T01:53:04.421Z,10.52
2018-02-18T01:55:31.882Z,11.40
2018-02-18T01:57:59.793Z,11.30
2018-02-18T02:00:27.262Z,12.70
2018-02-18T02:02:54.746Z,12.32
2018-02-18T02:05:22.248Z,11.43
2018-02-18T02:07:49.691Z,11.57
2018-02-18T02:10:17.155Z,11.12
2018-02-18T02:12:45.398Z,9.70
2018-02-18T02:15:12.871Z,10.55
2018-02-18T02:17:41.096Z,9.40
2018-02-18T02:20:08.560Z,11.52
2018-02-18T02:22:36.023Z,10.32
2018-02-18T02:25:03.500Z,10.77
2018-02-18T02:27:30.980Z,10.88
2018-02-18T02:29:59.213Z,10.23
2018-02-18T02:32:26.691Z,10.50
2018-02-18T02:34:54.172Z,10.77
2018-02-18T02:37:21.643Z,10.98
2018-02-18T02:39:49.120Z,11.23
2018-02-18T02:42:16.594Z,11.15
2018-02-18T02:44:44.078Z,11.07
2018-02-18T02:47:11.547Z,9.90
2018-02-18T02:49:39.003Z,10.95
2018-02-18T02:52:06.486Z,10.25
2018-02-18T02:54:33.968Z,9.85
2018-02-18T02:57:01.442Z,11.73
2018-02-18T02:59:28.911Z,11.45
2018-02-18T03:01:56.390Z,10.95
2018-02-18T03:04:23.863Z,10.75
2018-02-18T03:06:52.094Z,9.20
2018-02-18T03:09:19.548Z,11.85
2018-02-18T03:11:47.002Z,11.07
2018-02-18T03:14:14.466Z,10.02
2018-02-18T03:16:41.919Z,10.98
2018-02-18T03:19:09.398Z,10.88
2018-02-18T03:21:36.878Z,12.00
2018-02-18T03:24:06.015Z,11.77
2018-02-18T03:26:33.500Z,10.70
2018-02-18T03:29:00.958Z,9.82
2018-02-18T03:31:28.419Z,11.43
2018-02-18T03:33:55.873Z,11.40
2018-02-18T03:36:23.354Z,10.38
2018-02-18T03:38:51.607Z,9.90
2018-02-18T03:41:19.065Z,11.20
2018-02-18T03:43:46.528Z,11.73
2018-02-18T03:46:13.994Z,9.90
2018-02-18T03:48:42.226Z,9.45
2018-02-18T03:51:09.695Z,11.15
2018-02-18T03:53:37.178Z,9.98
2018-02-18T03:56:04.652Z,10.35
2018-02-18T03:58:32.902Z,10.07
2018-02-18T04:01:00.383Z,9.80
2018-02-18T04:03:28.622Z,10.27
2018-02-18T04:05:56.110Z,11.00
2018-02-18T04:08:23.578Z,11.20
2018-02-18T04:10:51.063Z,10.15
2018-02-18T04:13:18.540Z,10.23
2018-02-18T04:15:46.028Z,11.18
2018-02-18T04:18:13.504Z,10.63
2018-02-18T04:20:40.973Z,10.10
2018-02-18T04:23:08.418Z,10.25
2018-02-18T04:25:35.882Z,9.02
2018-02-18T04:28:03.341Z,9.50
2018-02-18T04:30:30.811Z,9.68
2018-02-18T04:32:58.284Z,8.98
2018-02-18T04:35:25.753Z,10.18
2018-02-18T04:37:53.224Z,10.68
2018-02-18T04:40:20.695Z,10.07
2018-02-18T04:42:48.197Z,9.60
2018-02-18T04:45:15.712Z,9.50
2018-02-18T04:47:43.204Z,12.63
2018-02-18T04:50:10.649Z,8.73
2018-02-18T04:52:38.104Z,10.15
2018-02-18T04:55:05.585Z,9.75
2018-02-18T04:57:33.063Z,9.50
2018-02-18T05:00:00.536Z,9.65
2018-02-18T05:02:28.001Z,8.73
2018-02-18T05:04:55.479Z,9.35
2018-02-18T05:07:23.749Z,9.18
2018-02-18T05:09:51.221Z,10.57
2018-02-18T05:12:18.693Z,9.82
2018-02-18T05:14:46.146Z,8.88
2018-02-18T05:17:13.637Z,8.40
2018-02-18T05:19:41.102Z,10.27
2018-02-18T05:22:08.561Z,9.48
2018-02-18T05:24:36.031Z,10.15
2018-02-18T05:27:03.474Z,8.80
2018-02-18T05:29:30.933Z,9.10
2018-02-18T05:31:59.234Z,9.23
2018-02-18T05:34:26.705Z,9.40
2018-02-18T05:36:54.192Z,9.13
2018-02-18T05:39:21.644Z,9.07
2018-02-18T05:41:49.122Z,9.20
2018-02-18T05:44:16.567Z,9.02
2018-02-18T05:46:44.024Z,8.38
2018-02-18T05:49:11.493Z,7.55
2018-02-18T05:51:38.978Z,9.20
2018-02-18T05:54:06.447Z,8.55
2018-02-18T05:56:33.929Z,9.43
2018-02-18T05:59:02.163Z,7.82
2018-02-18T06:01:29.626Z,8.38
2018-02-18T06:03:57.095Z,9.27
2018-02-18T06:06:24.560Z,8.38
2018-02-18T06:08:52.781Z,8.98
2018-02-18T06:11:20.262Z,8.13
2018-02-18T06:13:47.744Z,8.05
2018-02-18T06:16:15.984Z,8.75
2018-02-18T06:18:43.446Z,7.30
2018-02-18T06:21:10.907Z,7.80
2018-02-18T06:23:38.392Z,8.52
2018-02-18T06:26:05.859Z,8.25
2018-02-18T06:28:33.330Z,9.05
2018-02-18T06:31:00.804Z,8.00
2018-02-18T06:33:28.276Z,8.00
2018-02-18T06:35:55.741Z,9.57
2018-02-18T06:38:23.209Z,8.68
2018-02-18T06:40:50.694Z,8.38
2018-02-18T06:43:18.920Z,7.10
2018-02-18T06:45:46.378Z,8.45
2018-02-18T06:48:13.844Z,7.32
2018-02-18T06:50:41.309Z,8.60
2018-02-18T06:53:08.798Z,8.73
2018-02-18T06:55:37.026Z,8.35
2018-02-18T06:58:04.485Z,7.70
2018-02-18T07:00:31.950Z,8.68
2018-02-18T07:02:59.414Z,9.02
2018-02-18T07:05:26.885Z,9.20
2018-02-18T07:07:54.357Z,8.38
2018-02-18T07:10:22.606Z,7.47
2018-02-18T07:12:50.070Z,8.40
2018-02-18T07:15:17.577Z,8.82
2018-02-18T07:17:45.084Z,7.55
2018-02-18T07:20:12.562Z,8.23
2018-02-18T07:22:40.043Z,9.13
2018-02-18T07:25:07.543Z,8.85
2018-02-18T07:27:34.974Z,8.35
2018-02-18T07:30:02.494Z,9.30
2018-02-18T07:32:30.722Z,8.90
2018-02-18T07:34:58.191Z,9.60
2018-02-18T07:37:25.671Z,8.80
2018-02-18T07:39:53.142Z,8.20
2018-02-18T07:42:21.374Z,8.93
2018-02-18T07:44:48.850Z,8.45
2018-02-18T07:47:16.306Z,11.30
2018-02-18T07:49:43.758Z,9.80
2018-02-18T07:52:11.226Z,9.20
2018-02-18T07:54:38.709Z,10.05
2018-02-18T07:57:06.190Z,9.85
2018-02-18T07:59:33.648Z,9.52
2018-02-18T08:02:01.114Z,8.73
2018-02-18T08:04:28.574Z,7.85
2018-02-18T08:06:56.041Z,7.32
2018-02-18T08:09:23.498Z,8.95
2018-02-18T08:11:50.971Z,7.45
2018-02-18T08:14:18.441Z,8.43
2018-02-18T08:16:45.936Z,8.65
2018-02-18T08:19:13.405Z,8.80
2018-02-18T08:21:40.891Z,7.43
2018-02-18T08:24:08.364Z,8.95
2018-02-18T08:26:35.823Z,7.57
2018-02-18T08:29:08.926Z,7.75
2018-02-18T08:31:36.629Z,8.15
2018-02-18T08:34:04.096Z,9.25
2018-02-18T08:36:31.562Z,7.95
2018-02-18T08:39:05.002Z,6.70
2018-02-18T08:41:32.490Z,7.75
2018-02-18T08:43:59.954Z,7.45
2018-02-18T08:46:27.429Z,7.62
2018-02-18T08:48:54.898Z,6.65
2018-02-18T08:51:22.381Z,7.05
2018-02-18T08:53:49.853Z,6.18
2018-02-18T08:56:17.339Z,6.78
2018-02-18T08:58:44.794Z,6.03
2018-02-18T09:01:12.281Z,5.93
2018-02-18T09:03:39.738Z,7.03
2018-02-18T09:06:07.219Z,6.20
2018-02-18T09:08:35.446Z,5.07
2018-02-18T09:11:02.925Z,6.00
2018-02-18T09:13:30.391Z,6.60
2018-02-18T09:15:57.862Z,4.97
2018-02-18T09:18:25.325Z,6.28
2018-02-18T09:20:53.574Z,6.68
2018-02-18T09:23:21.046Z,5.97
2018-02-18T09:25:48.520Z,4.90
2018-02-18T09:28:16.758Z,5.00
2018-02-18T09:30:44.209Z,4.87
2018-02-18T09:33:11.700Z,5.97
2018-02-18T09:35:39.947Z,4.90
2018-02-18T09:38:07.426Z,4.85
2018-02-18T09:40:34.896Z,5.28
2018-02-18T09:43:03.149Z,4.28
2018-02-18T09:45:30.611Z,4.68
2018-02-18T09:47:58.105Z,5.60
2018-02-18T09:50:26.348Z,5.30
2018-02-18T09:52:53.814Z,5.22
2018-02-18T09:55:21.272Z,4.22
2018-02-18T09:57:49.528Z,5.03
2018-02-18T10:00:16.995Z,4.68
2018-02-18T10:02:44.446Z,4.60
2018-02-18T10:05:11.902Z,4.75
2018-02-18T10:07:39.360Z,4.05
2018-02-18T10:10:06.813Z,3.90
2018-02-18T10:12:34.283Z,3.22
2018-02-18T10:15:01.742Z,3.20
2018-02-18T10:17:29.994Z,4.12
2018-02-18T10:19:57.501Z,3.40
2018-02-18T10:22:25.702Z,3.37
2018-02-18T10:24:53.176Z,3.62
2018-02-18T10:27:20.645Z,3.45
2018-02-18T10:29:48.105Z,3.45
2018-02-18T10:32:15.556Z,3.87
2018-02-18T10:34:43.046Z,4.10
2018-02-18T10:37:11.265Z,4.00
2018-02-18T10:39:38.739Z,2.85
2018-02-18T10:42:06.221Z,2.85
2018-02-18T10:44:33.674Z,4.45
2018-02-18T10:47:01.151Z,3.37
2018-02-18T10:49:29.396Z,3.40
2018-02-18T10:51:56.915Z,3.10
2018-02-18T10:54:24.382Z,4.28
2018-02-18T10:56:51.838Z,3.85
2018-02-18T10:59:19.326Z,3.85
2018-02-18T11:01:46.801Z,3.83
2018-02-18T11:04:14.258Z,3.80
2018-02-18T11:06:42.490Z,4.05
2018-02-18T11:09:09.959Z,3.80
2018-02-18T11:11:37.436Z,4.68
2018-02-18T11:14:04.894Z,3.72
2018-02-18T11:16:32.374Z,4.00
2018-02-18T11:18:59.853Z,4.22
2018-02-18T11:21:27.346Z,3.83
2018-02-18T11:23:54.854Z,4.30
2018-02-18T11:26:22.323Z,4.03
2018-02-18T11:28:49.799Z,3.67
2018-02-18T11:31:17.286Z,4.93
2018-02-18T11:33:44.746Z,3.85
2018-02-18T11:36:12.226Z,3.83
2018-02-18T11:38:40.449Z,5.00
2018-02-18T11:41:07.935Z,3.97
2018-02-18T11:43:35.402Z,3.80
2018-02-18T11:46:02.855Z,4.90
2018-02-18T11:48:30.340Z,4.22
2018-02-18T11:50:57.838Z,3.90
2018-02-18T11:53:25.328Z,4.57
2018-02-18T11:55:52.811Z,4.70
2018-02-18T11:58:20.299Z,4.50
2018-02-18T12:00:47.776Z,5.80
2018-02-18T12:03:15.238Z,5.00
2018-02-18T12:05:42.716Z,5.45
2018-02-18T12:08:10.911Z,5.35
2018-02-18T12:10:38.401Z,4.93
2018-02-18T12:13:05.862Z,6.32
2018-02-18T12:15:33.360Z,5.75
2018-02-18T12:18:00.840Z,4.62
2018-02-18T12:20:28.306Z,4.82
2018-02-18T12:22:55.784Z,5.93
2018-02-18T12:25:23.235Z,5.57
2018-02-18T12:27:50.711Z,6.05
2018-02-18T12:30:18.162Z,6.40
2018-02-18T12:32:45.610Z,7.37
2018-02-18T12:35:13.102Z,6.55
2018-02-18T12:37:40.572Z,6.90
2018-02-18T12:40:08.054Z,7.22
2018-02-18T12:42:35.538Z,6.97
2018-02-18T12:45:03.002Z,8.02
2018-02-18T12:47:30.469Z,7.95
2018-02-18T12:49:57.931Z,7.97
2018-02-18T12:52:25.412Z,7.22
2018-02-18T12:54:52.870Z,7.35
2018-02-18T12:57:20.341Z,8.23
2018-02-18T12:59:48.582Z,8.23
2018-02-18T13:02:16.049Z,7.28
2018-02-18T13:04:43.502Z,8.07
2018-02-18T13:07:10.988Z,7.85
2018-02-18T13:09:38.478Z,7.37
2018-02-18T13:12:05.989Z,7.18
2018-02-18T13:14:33.454Z,7.53
2018-02-18T13:17:01.675Z,7.00
2018-02-18T13:19:29.182Z,7.30
2018-02-18T13:21:57.246Z,7.43
2018-02-18T13:24:24.886Z,6.85
2018-02-18T13:26:52.355Z,6.25
2018-02-18T13:29:19.827Z,8.75
2018-02-18T13:31:47.343Z,9.18
2018-02-18T13:34:14.799Z,8.65
2018-02-18T13:36:42.252Z,9.95
2018-02-18T13:39:09.711Z,8.23
2018-02-18T13:41:37.179Z,6.93
2018-02-18T13:44:04.634Z,6.05
2018-02-18T13:46:32.134Z,7.40
2018-02-18T13:48:59.609Z,7.57
2018-02-18T13:51:27.110Z,7.50
2018-02-18T13:53:54.573Z,7.78
2018-02-18T13:56:22.042Z,6.10
2018-02-18T13:58:49.522Z,6.87
2018-02-18T14:01:16.984Z,7.82
2018-02-18T14:03:44.477Z,6.60
2018-02-18T14:06:12.700Z,8.05
2018-02-18T14:08:40.163Z,7.32
2018-02-18T14:11:07.650Z,6.68
2018-02-18T14:13:35.129Z,7.80
2018-02-18T14:16:02.598Z,6.55
2018-02-18T14:18:30.090Z,7.10
2018-02-18T14:20:57.557Z,7.03
2018-02-18T14:23:25.820Z,6.93
2018-02-18T14:25:53.277Z,7.30
2018-02-18T14:28:20.756Z,8.50
2018-02-18T14:30:48.227Z,8.32
2018-02-18T14:33:15.676Z,7.72
2018-02-18T14:35:43.134Z,6.85
2018-02-18T14:38:10.626Z,6.25
2018-02-18T14:40:38.131Z,6.35
2018-02-18T14:43:18.150Z,6.87
2018-02-18T14:45:57.458Z,6.40
2018-02-18T14:48:36.652Z,7.62
2018-02-18T14:51:16.717Z,7.18
2018-02-18T14:53:56.068Z,7.07
2018-02-18T14:56:35.165Z,8.57
2018-02-18T14:59:03.407Z,7.82
2018-02-18T15:01:30.874Z,7.70
2018-02-18T15:03:58.332Z,6.97
2018-02-18T15:06:25.810Z,8.45
2018-02-18T15:08:53.279Z,7.65
2018-02-18T15:11:20.748Z,6.53
2018-02-18T15:13:48.230Z,7.43
2018-02-18T15:16:15.688Z,7.30
2018-02-18T15:18:43.175Z,6.80
2018-02-18T15:21:10.655Z,8.07
2018-02-18T15:23:38.891Z,7.03
2018-02-18T15:26:06.365Z,6.70
2018-02-18T15:28:33.837Z,6.28
2018-02-18T15:31:02.067Z,7.28
2018-02-18T15:33:29.534Z,7.57
2018-02-18T15:35:57.007Z,6.97
2018-02-18T15:38:24.478Z,6.60
2018-02-18T15:40:51.947Z,6.85
2018-02-18T15:43:20.177Z,8.02
2018-02-18T15:45:47.637Z,7.22
2018-02-18T15:48:15.556Z,6.50
2018-02-18T15:50:43.038Z,6.82
2018-02-18T15:53:10.519Z,7.70
2018-02-18T15:55:37.982Z,7.10
2018-02-18T15:58:05.465Z,7.18
2018-02-18T16:00:33.686Z,6.35
2018-02-18T16:03:01.167Z,6.65
2018-02-18T16:05:28.634Z,7.30
2018-02-18T16:07:56.117Z,7.53
2018-02-18T16:10:23.590Z,6.93
2018-02-18T16:12:51.104Z,7.70
2018-02-18T16:15:18.568Z,8.52
2018-02-18T16:17:46.029Z,7.37
2018-02-18T16:20:13.585Z,7.87
2018-02-18T16:22:41.034Z,6.97
2018-02-18T16:25:08.492Z,8.32
2018-02-18T16:27:36.736Z,6.78
2018-02-18T16:30:04.228Z,7.45
2018-02-18T16:32:31.700Z,8.07
2018-02-18T16:34:59.183Z,7.22
2018-02-18T16:37:26.660Z,6.95
2018-02-18T16:39:54.122Z,7.62
2018-02-18T16:42:21.619Z,6.72
2018-02-18T16:44:49.112Z,7.95
2018-02-18T16:47:16.570Z,8.38
2018-02-18T16:49:44.033Z,7.18
2018-02-18T16:52:11.584Z,8.45
2018-02-18T16:54:39.049Z,9.07
2018-02-18T16:57:06.544Z,8.82
2018-02-18T16:59:34.039Z,8.90
2018-02-18T17:02:02.278Z,7.60
2018-02-18T17:04:29.754Z,8.95
2018-02-18T17:06:57.223Z,8.50
2018-02-18T17:09:24.697Z,7.00
2018-02-18T17:11:52.942Z,7.30
2018-02-18T17:14:20.414Z,7.87
2018-02-18T17:16:47.880Z,7.90
2018-02-18T17:19:15.426Z,8.18
2018-02-18T17:21:42.900Z,7.40
2018-02-18T17:24:11.150Z,8.10
2018-02-18T17:26:38.627Z,8.60
2018-02-18T17:29:06.112Z,8.75
2018-02-18T17:31:33.563Z,9.98
2018-02-18T17:34:01.052Z,7.78
2018-02-18T17:36:28.533Z,9.07
2018-02-18T17:38:55.996Z,8.43
2018-02-18T17:41:23.482Z,8.73
2018-02-18T17:43:50.972Z,8.30
2018-02-18T17:46:18.463Z,9.27
2018-02-18T17:48:45.982Z,8.30
2018-02-18T17:51:13.478Z,9.43
2018-02-18T17:53:40.944Z,8.98
2018-02-18T17:56:08.421Z,9.50
2018-02-18T17:58:36.672Z,9.45
2018-02-18T18:01:04.142Z,8.55
2018-02-18T18:03:31.609Z,8.85
2018-02-18T18:05:59.078Z,9.80
2018-02-18T18:08:26.601Z,8.27
2018-02-18T18:10:54.041Z,9.82
2018-02-18T18:13:21.514Z,10.60
2018-02-18T18:15:48.984Z,9.93
2018-02-18T18:18:16.520Z,8.93
2018-02-18T18:20:43.995Z,9.38
2018-02-18T18:23:11.471Z,9.52
2018-02-18T18:25:38.938Z,9.43
2018-02-18T18:28:06.395Z,10.02
2018-02-18T18:30:33.866Z,9.90
2018-02-18T18:33:01.418Z,9.93
2018-02-18T18:35:28.827Z,8.27
2018-02-18T18:37:56.307Z,10.40
2018-02-18T18:40:23.786Z,10.40
2018-02-18T18:42:51.265Z,10.65
2018-02-18T18:45:18.761Z,10.10
2018-02-18T18:47:46.201Z,10.00
2018-02-18T18:50:13.687Z,10.93
2018-02-18T18:52:41.925Z,11.07
2018-02-18T18:55:09.402Z,10.38
2018-02-18T18:57:36.866Z,11.23
2018-02-18T19:00:04.331Z,8.77
2018-02-18T19:02:31.791Z,11.00
2018-02-18T19:05:00.036Z,10.15
2018-02-18T19:07:27.509Z,11.38
2018-02-18T19:09:54.989Z,9.52
2018-02-18T19:12:23.242Z,9.88
2018-02-18T19:14:50.834Z,10.57
2018-02-18T19:17:18.315Z,9.93
2018-02-18T19:19:45.791Z,10.93
2018-02-18T19:22:13.274Z,11.30
2018-02-18T19:24:40.766Z,10.70
2018-02-18T19:27:08.335Z,10.85
2018-02-18T19:29:35.824Z,9.88
2018-02-18T19:32:03.314Z,11.35
2018-02-18T19:34:31.544Z,10.63
2018-02-18T19:36:59.029Z,11.25
2018-02-18T19:39:26.500Z,10.82
2018-02-18T19:41:54.005Z,11.73
2018-02-18T19:44:21.481Z,11.65
2018-02-18T19:46:49.171Z,11.15
2018-02-18T19:49:16.653Z,12.05
2018-02-18T19:51:44.899Z,10.10
2018-02-18T19:54:12.410Z,10.65
2018-02-18T19:56:39.973Z,11.32
2018-02-18T19:59:07.460Z,10.93
2018-02-18T20:01:35.117Z,11.20
2018-02-18T20:04:02.627Z,12.30
2018-02-18T20:06:30.093Z,11.63
2018-02-18T20:08:57.558Z,10.13
2018-02-18T20:11:25.271Z,10.80
2018-02-18T20:13:52.824Z,10.73
2018-02-18T20:16:20.342Z,11.65
2018-02-18T20:18:47.839Z,10.95
2018-02-18T20:21:16.115Z,12.77
2018-02-18T20:23:43.596Z,11.60
2018-02-18T20:26:11.887Z,10.93
2018-02-18T20:28:39.379Z,12.25
2018-02-18T20:31:06.945Z,11.48
2018-02-18T20:33:34.619Z,11.57
2018-02-18T20:36:02.144Z,12.45
2018-02-18T20:38:29.657Z,10.05
2018-02-18T20:40:57.214Z,11.75
2018-02-18T20:43:24.764Z,11.38
2018-02-18T20:45:52.330Z,11.25
2018-02-18T20:48:19.846Z,11.35
2018-02-18T20:50:47.371Z,12.07
2018-02-18T20:53:14.944Z,12.68
2018-02-18T20:55:42.434Z,11.40
2018-02-18T20:58:09.915Z,11.90
2018-02-18T21:00:37.423Z,11.00
2018-02-18T21:03:05.019Z,11.77
2018-02-18T21:05:32.575Z,11.63
2018-02-18T21:08:00.043Z,13.62
2018-02-18T21:10:27.692Z,12.65
2018-02-18T21:12:55.440Z,14.15
2018-02-18T21:15:22.995Z,13.35
2018-02-18T21:17:50.480Z,14.05
2018-02-18T21:20:17.986Z,14.32
2018-02-18T21:22:45.577Z,14.27
2018-02-18T21:25:13.083Z,15.18
2018-02-18T21:27:41.333Z,13.70
2018-02-18T21:30:08.833Z,14.85
2018-02-18T21:32:36.351Z,13.82
2018-02-18T21:35:03.847Z,12.35
2018-02-18T21:37:31.333Z,12.18
2018-02-18T21:39:58.864Z,13.43
2018-02-18T21:42:27.132Z,14.20
2018-02-18T21:44:54.626Z,13.00
2018-02-18T21:47:22.093Z,13.90
2018-02-18T21:49:49.571Z,15.15
2018-02-18T21:52:17.080Z,13.98
2018-02-18T21:54:44.582Z,12.85
2018-02-18T21:57:12.091Z,13.23
2018-02-18T21:59:39.695Z,13.20
2018-02-18T22:02:07.178Z,13.20
2018-02-18T22:04:34.663Z,11.60
2018-02-18T22:07:02.139Z,13.77
2018-02-18T22:09:29.649Z,12.10
2018-02-18T22:11:57.982Z,12.85
2018-02-18T22:14:25.455Z,12.95
2018-02-18T22:16:52.979Z,13.60
2018-02-18T22:19:20.471Z,12.18
2018-02-18T22:21:48.185Z,13.00
2018-02-18T22:24:15.674Z,12.15
2018-02-18T22:26:43.154Z,11.80
2018-02-18T22:29:10.619Z,13.65
2018-02-18T22:31:38.110Z,14.25
2018-02-18T22:34:05.611Z,12.85
2018-02-18T22:36:33.098Z,14.23
2018-02-18T22:39:00.575Z,13.13
2018-02-18T22:41:28.819Z,13.07
2018-02-18T22:43:56.313Z,14.13
2018-02-18T22:46:24.551Z,13.70
2018-02-18T22:48:52.038Z,12.65
2018-02-18T22:51:19.518Z,12.88
2018-02-18T22:53:48.228Z,13.07
2018-02-18T22:56:15.703Z,14.48
2018-02-18T22:58:43.216Z,14.00
2018-02-18T23:01:10.693Z,13.85
2018-02-18T23:03:38.217Z,13.62
2018-02-18T23:06:05.655Z,14.35
2018-02-18T23:08:33.202Z,14.77
2018-02-18T23:11:00.661Z,14.05
2018-02-18T23:13:28.164Z,15.02
2018-02-18T23:15:55.643Z,14.32
2018-02-18T23:18:23.161Z,13.57
2018-02-18T23:21:02.330Z,14.40
2018-02-18T23:23:29.789Z,13.90
2018-02-18T23:25:57.268Z,15.50
2018-02-18T23:28:24.757Z,14.40
2018-02-18T23:30:52.234Z,15.38
2018-02-18T23:33:19.717Z,15.70
2018-02-18T23:35:47.961Z,14.95
2018-02-18T23:38:15.461Z,14.55
2018-02-18T23:40:42.968Z,15.65
2018-02-18T23:43:11.212Z,15.70
2018-02-18T23:45:38.695Z,15.30
2018-02-18T23:48:06.196Z,14.70
2018-02-18T23:50:33.661Z,15.80
2018-02-18T23:53:01.178Z,16.15
2018-02-18T23:55:28.605Z,16.62
2018-02-18T23:57:56.060Z,16.45
